sensor_id;sensor_type;location;lat;lon;timestamp;pressure;altitude;pressure_sealevel;temperature;humidity
31585;BME280;18191;51.288;12.390;2024-02-28T00:04:30;49136.16;;;-144.47;98.40
31585;BME280;18191;51.288;12.390;2024-02-28T00:09:20;49100.34;;;-144.47;99.60
31585;BME280;18191;51.288;12.390;2024-02-28T00:14:11;49150.06;;;-144.47;99.71
31585;BME280;18191;51.288;12.390;2024-02-28T00:19:02;49189.88;;;-144.47;99.50
31585;BME280;18191;51.288;12.390;2024-02-28T00:23:52;49144.09;;;-144.47;99.15
31585;BME280;18191;51.288;12.390;2024-02-28T00:28:42;49187.88;;;-144.47;99.22
31585;BME280;18191;51.288;12.390;2024-02-28T00:33:32;49142.13;;;-144.47;98.79
31585;BME280;18191;51.288;12.390;2024-02-28T00:38:23;49128.19;;;-144.47;99.31
31585;BME280;18191;51.288;12.390;2024-02-28T00:43:13;49136.16;;;-144.47;99.89
31585;BME280;18191;51.288;12.390;2024-02-28T00:48:03;49183.91;;;-144.47;100.00
31585;BME280;18191;51.288;12.390;2024-02-28T00:52:54;49148.09;;;-144.47;98.80
31585;BME280;18191;51.288;12.390;2024-02-28T00:57:44;49171.97;;;-144.47;99.93
31585;BME280;18191;51.288;12.390;2024-02-28T01:02:34;49173.94;;;-144.47;99.73
31585;BME280;18191;51.288;12.390;2024-02-28T01:07:25;49183.91;;;-144.47;98.65
31585;BME280;18191;51.288;12.390;2024-02-28T01:12:15;49171.97;;;-144.47;99.57
31585;BME280;18191;51.288;12.390;2024-02-28T01:17:05;49108.31;;;-144.47;99.74
31585;BME280;18191;51.288;12.390;2024-02-28T01:21:56;49154.06;;;-144.47;99.99
31585;BME280;18191;51.288;12.390;2024-02-28T01:26:46;49144.09;;;-144.47;99.49
31585;BME280;18191;51.288;12.390;2024-02-28T01:31:36;49164.00;;;-144.47;100.00
31585;BME280;18191;51.288;12.390;2024-02-28T01:36:27;49148.09;;;-144.47;99.10
31585;BME280;18191;51.288;12.390;2024-02-28T01:41:17;49144.09;;;-144.47;98.20
31585;BME280;18191;51.288;12.390;2024-02-28T01:51:10;49179.91;;;-144.47;97.38
31585;BME280;18191;51.288;12.390;2024-02-28T01:56:01;49146.09;;;-144.47;96.98
31585;BME280;18191;51.288;12.390;2024-02-28T02:00:51;49171.97;;;-144.47;97.75
31585;BME280;18191;51.288;12.390;2024-02-28T02:05:42;49158.03;;;-144.47;97.65
31585;BME280;18191;51.288;12.390;2024-02-28T02:10:33;49146.09;;;-144.47;96.13
31585;BME280;18191;51.288;12.390;2024-02-28T02:15:23;49136.16;;;-144.47;95.32
31585;BME280;18191;51.288;12.390;2024-02-28T02:20:14;49092.38;;;-144.47;94.18
31585;BME280;18191;51.288;12.390;2024-02-28T02:25:05;49166.00;;;-144.47;96.52
31585;BME280;18191;51.288;12.390;2024-02-28T02:29:56;49154.06;;;-144.47;95.32
31585;BME280;18191;51.288;12.390;2024-02-28T02:34:46;49160.03;;;-144.47;94.43
31585;BME280;18191;51.288;12.390;2024-02-28T02:39:37;49120.25;;;-144.47;94.29
31585;BME280;18191;51.288;12.390;2024-02-28T02:44:27;49152.06;;;-144.47;94.82
31585;BME280;18191;51.288;12.390;2024-02-28T02:49:17;49128.19;;;-144.47;93.21
31585;BME280;18191;51.288;12.390;2024-02-28T02:54:11;49116.25;;;-144.47;93.19
31585;BME280;18191;51.288;12.390;2024-02-28T02:59:02;49128.19;;;-144.47;94.94
31585;BME280;18191;51.288;12.390;2024-02-28T03:03:52;49132.16;;;-144.47;94.26
31585;BME280;18191;51.288;12.390;2024-02-28T03:08:43;49160.03;;;-144.47;94.56
31585;BME280;18191;51.288;12.390;2024-02-28T03:13:33;49148.09;;;-144.47;94.38
31585;BME280;18191;51.288;12.390;2024-02-28T03:18:23;49171.97;;;-144.47;93.68
31585;BME280;18191;51.288;12.390;2024-02-28T03:23:13;49154.06;;;-144.47;93.16
31585;BME280;18191;51.288;12.390;2024-02-28T03:28:04;49160.03;;;-144.47;93.74
31585;BME280;18191;51.288;12.390;2024-02-28T03:32:54;49126.22;;;-144.47;93.23
31585;BME280;18191;51.288;12.390;2024-02-28T03:37:44;49156.03;;;-144.47;92.72
31585;BME280;18191;51.288;12.390;2024-02-28T03:42:35;49102.34;;;-144.47;91.78
31585;BME280;18191;51.288;12.390;2024-02-28T03:47:25;49148.09;;;-144.47;92.10
31585;BME280;18191;51.288;12.390;2024-02-28T03:52:15;49112.28;;;-144.47;92.12
31585;BME280;18191;51.288;12.390;2024-02-28T03:57:06;49132.16;;;-144.47;92.31
31585;BME280;18191;51.288;12.390;2024-02-28T04:01:56;49146.09;;;-144.47;92.43
31585;BME280;18191;51.288;12.390;2024-02-28T04:06:46;49142.13;;;-144.47;92.17
31585;BME280;18191;51.288;12.390;2024-02-28T04:11:37;49112.28;;;-144.47;92.53
31585;BME280;18191;51.288;12.390;2024-02-28T04:16:28;49138.16;;;-144.47;93.02
31585;BME280;18191;51.288;12.390;2024-02-28T04:21:18;49136.16;;;-144.47;93.89
31585;BME280;18191;51.288;12.390;2024-02-28T04:26:09;49156.03;;;-144.47;94.37
31585;BME280;18191;51.288;12.390;2024-02-28T04:30:59;49112.28;;;-144.47;94.99
31585;BME280;18191;51.288;12.390;2024-02-28T04:35:50;49108.31;;;-144.47;94.56
31585;BME280;18191;51.288;12.390;2024-02-28T04:40:40;49144.09;;;-144.47;93.34
31585;BME280;18191;51.288;12.390;2024-02-28T04:45:30;49140.13;;;-144.47;92.74
31585;BME280;18191;51.288;12.390;2024-02-28T04:50:20;49160.03;;;-144.47;93.02
31585;BME280;18191;51.288;12.390;2024-02-28T04:55:11;49122.22;;;-144.47;94.13
31585;BME280;18191;51.288;12.390;2024-02-28T05:00:02;49136.16;;;-144.47;93.63
31585;BME280;18191;51.288;12.390;2024-02-28T05:04:53;49140.13;;;-144.47;92.90
31585;BME280;18191;51.288;12.390;2024-02-28T05:09:44;49148.09;;;-144.47;93.34
31585;BME280;18191;51.288;12.390;2024-02-28T05:14:34;49112.28;;;-144.47;93.11
31585;BME280;18191;51.288;12.390;2024-02-28T05:19:24;49156.03;;;-144.47;91.54
31585;BME280;18191;51.288;12.390;2024-02-28T05:24:14;49177.94;;;-144.47;92.16
31585;BME280;18191;51.288;12.390;2024-02-28T05:29:05;49158.03;;;-144.47;91.69
31585;BME280;18191;51.288;12.390;2024-02-28T05:33:57;49112.28;;;-144.47;90.61
31585;BME280;18191;51.288;12.390;2024-02-28T05:38:47;49140.13;;;-144.47;90.36
31585;BME280;18191;51.288;12.390;2024-02-28T05:43:38;49140.13;;;-144.47;90.35
31585;BME280;18191;51.288;12.390;2024-02-28T05:48:28;49167.97;;;-144.47;90.39
31585;BME280;18191;51.288;12.390;2024-02-28T05:53:19;49136.16;;;-144.47;89.83
31585;BME280;18191;51.288;12.390;2024-02-28T05:58:10;49152.06;;;-144.47;90.71
31585;BME280;18191;51.288;12.390;2024-02-28T06:03:00;49142.13;;;-144.47;90.41
31585;BME280;18191;51.288;12.390;2024-02-28T06:07:50;49136.16;;;-144.47;90.26
31585;BME280;18191;51.288;12.390;2024-02-28T06:12:41;49118.25;;;-144.47;89.30
31585;BME280;18191;51.288;12.390;2024-02-28T06:17:31;49150.06;;;-144.47;88.75
31585;BME280;18191;51.288;12.390;2024-02-28T06:22:21;49112.28;;;-144.47;89.78
31585;BME280;18191;51.288;12.390;2024-02-28T06:27:12;49156.03;;;-144.47;89.55
31585;BME280;18191;51.288;12.390;2024-02-28T06:32:03;49164.00;;;-144.47;90.15
31585;BME280;18191;51.288;12.390;2024-02-28T06:36:54;49112.28;;;-144.47;89.16
31585;BME280;18191;51.288;12.390;2024-02-28T06:41:44;49167.97;;;-144.47;89.07
31585;BME280;18191;51.288;12.390;2024-02-28T06:46:35;49092.38;;;-144.47;88.08
31585;BME280;18191;51.288;12.390;2024-02-28T06:51:25;49122.22;;;-144.47;88.05
31585;BME280;18191;51.288;12.390;2024-02-28T06:56:15;49132.16;;;-144.47;86.59
31585;BME280;18191;51.288;12.390;2024-02-28T07:01:06;49187.88;;;-144.47;86.20
31585;BME280;18191;51.288;12.390;2024-02-28T07:05:57;49108.31;;;-144.47;86.12
31585;BME280;18191;51.288;12.390;2024-02-28T07:10:47;49092.38;;;-144.47;85.75
31585;BME280;18191;51.288;12.390;2024-02-28T07:15:39;49156.03;;;-144.47;84.89
31585;BME280;18191;51.288;12.390;2024-02-28T07:20:31;49124.22;;;-144.47;83.21
31585;BME280;18191;51.288;12.390;2024-02-28T07:25:21;49120.25;;;-144.47;83.10
31585;BME280;18191;51.288;12.390;2024-02-28T07:30:12;49118.25;;;-144.47;83.39
31585;BME280;18191;51.288;12.390;2024-02-28T07:35:03;49128.19;;;-144.47;83.27
31585;BME280;18191;51.288;12.390;2024-02-28T07:39:53;49164.00;;;-144.47;81.44
31585;BME280;18191;51.288;12.390;2024-02-28T07:44:44;49144.09;;;-144.47;82.58
31585;BME280;18191;51.288;12.390;2024-02-28T07:49:34;49104.31;;;-144.47;81.06
31585;BME280;18191;51.288;12.390;2024-02-28T07:54:24;49132.16;;;-144.47;80.06
31585;BME280;18191;51.288;12.390;2024-02-28T07:59:15;49152.06;;;-144.47;77.45
31585;BME280;18191;51.288;12.390;2024-02-28T08:04:05;49138.16;;;-144.47;76.82
31585;BME280;18191;51.288;12.390;2024-02-28T08:08:55;49164.00;;;-144.47;76.70
31585;BME280;18191;51.288;12.390;2024-02-28T08:13:46;49114.28;;;-144.47;77.35
31585;BME280;18191;51.288;12.390;2024-02-28T08:18:36;49120.25;;;-144.47;75.02
31585;BME280;18191;51.288;12.390;2024-02-28T08:23:26;49116.25;;;-144.47;74.50
31585;BME280;18191;51.288;12.390;2024-02-28T08:28:17;49136.16;;;-144.47;72.21
31585;BME280;18191;51.288;12.390;2024-02-28T08:33:07;49102.34;;;-144.47;73.03
31585;BME280;18191;51.288;12.390;2024-02-28T08:37:59;49136.16;;;-144.47;71.37
31585;BME280;18191;51.288;12.390;2024-02-28T08:42:49;49116.25;;;-144.47;71.50
31585;BME280;18191;51.288;12.390;2024-02-28T08:47:43;49146.09;;;-144.47;70.56
31585;BME280;18191;51.288;12.390;2024-02-28T08:52:34;49084.44;;;-144.47;71.51
31585;BME280;18191;51.288;12.390;2024-02-28T08:57:25;49076.47;;;-144.47;69.63
31585;BME280;18191;51.288;12.390;2024-02-28T09:02:15;49112.28;;;-144.47;70.33
31585;BME280;18191;51.288;12.390;2024-02-28T09:07:06;49114.28;;;-144.47;70.60
31585;BME280;18191;51.288;12.390;2024-02-28T09:11:56;49056.59;;;-144.47;69.89
31585;BME280;18191;51.288;12.390;2024-02-28T09:16:47;49144.09;;;-144.47;68.29
31585;BME280;18191;51.288;12.390;2024-02-28T09:21:37;49144.09;;;-144.47;68.55
31585;BME280;18191;51.288;12.390;2024-02-28T09:26:28;49128.19;;;-144.47;71.00
31585;BME280;18191;51.288;12.390;2024-02-28T09:31:18;49124.22;;;-144.47;71.06
31585;BME280;18191;51.288;12.390;2024-02-28T09:36:09;49128.19;;;-144.47;72.27
31585;BME280;18191;51.288;12.390;2024-02-28T09:40:59;49094.38;;;-144.47;71.59
31585;BME280;18191;51.288;12.390;2024-02-28T09:45:49;49100.34;;;-144.47;70.78
31585;BME280;18191;51.288;12.390;2024-02-28T09:50:40;49136.16;;;-144.47;68.69
31585;BME280;18191;51.288;12.390;2024-02-28T09:55:30;49096.38;;;-144.47;67.38
31585;BME280;18191;51.288;12.390;2024-02-28T10:00:21;49124.22;;;-144.47;66.33
31585;BME280;18191;51.288;12.390;2024-02-28T10:05:13;49106.31;;;-144.47;64.50
31585;BME280;18191;51.288;12.390;2024-02-28T10:10:05;49128.19;;;-144.47;64.69
31585;BME280;18191;51.288;12.390;2024-02-28T10:14:56;49084.44;;;-144.47;64.01
31585;BME280;18191;51.288;12.390;2024-02-28T10:19:46;49104.31;;;-144.47;64.01
31585;BME280;18191;51.288;12.390;2024-02-28T10:24:37;49120.25;;;-144.47;64.75
31585;BME280;18191;51.288;12.390;2024-02-28T10:29:27;49100.34;;;-144.47;65.16
31585;BME280;18191;51.288;12.390;2024-02-28T10:34:24;49060.56;;;-144.47;62.84
31585;BME280;18191;51.288;12.390;2024-02-28T10:39:15;49092.38;;;-144.47;61.95
31585;BME280;18191;51.288;12.390;2024-02-28T10:44:05;49104.31;;;-144.47;62.82
31585;BME280;18191;51.288;12.390;2024-02-28T10:48:56;49064.53;;;-144.47;61.32
31585;BME280;18191;51.288;12.390;2024-02-28T10:53:47;49112.28;;;-144.47;60.52
31585;BME280;18191;51.288;12.390;2024-02-28T10:58:51;49072.50;;;-144.47;61.91
31585;BME280;18191;51.288;12.390;2024-02-28T11:03:42;49072.50;;;-144.47;62.69
31585;BME280;18191;51.288;12.390;2024-02-28T11:08:35;49090.41;;;-144.47;59.70
31585;BME280;18191;51.288;12.390;2024-02-28T11:13:27;49068.50;;;-144.47;60.16
31585;BME280;18191;51.288;12.390;2024-02-28T11:18:18;49068.50;;;-144.47;58.46
31585;BME280;18191;51.288;12.390;2024-02-28T11:23:09;49072.50;;;-144.47;60.53
31585;BME280;18191;51.288;12.390;2024-02-28T11:28:00;49116.25;;;-144.47;58.01
31585;BME280;18191;51.288;12.390;2024-02-28T11:32:53;49044.66;;;-144.47;56.50
31585;BME280;18191;51.288;12.390;2024-02-28T11:37:49;49120.25;;;-144.47;56.93
31585;BME280;18191;51.288;12.390;2024-02-28T11:42:39;49098.34;;;-144.47;58.89
31585;BME280;18191;51.288;12.390;2024-02-28T11:47:29;49112.28;;;-144.47;52.31
31585;BME280;18191;51.288;12.390;2024-02-28T11:52:19;49080.44;;;-144.47;54.56
31585;BME280;18191;51.288;12.390;2024-02-28T11:57:11;49066.53;;;-144.47;55.48
31585;BME280;18191;51.288;12.390;2024-02-28T12:02:11;49084.44;;;-144.47;55.14
31585;BME280;18191;51.288;12.390;2024-02-28T12:07:02;49098.34;;;-144.47;54.20
31585;BME280;18191;51.288;12.390;2024-02-28T12:11:53;49060.56;;;-144.47;52.17
31585;BME280;18191;51.288;12.390;2024-02-28T12:16:43;49080.44;;;-144.47;52.59
31585;BME280;18191;51.288;12.390;2024-02-28T12:21:34;49072.50;;;-144.47;53.59
31585;BME280;18191;51.288;12.390;2024-02-28T12:26:24;49078.47;;;-144.47;53.11
31585;BME280;18191;51.288;12.390;2024-02-28T12:31:15;49096.38;;;-144.47;53.67
31585;BME280;18191;51.288;12.390;2024-02-28T12:36:06;49098.34;;;-144.47;51.22
31585;BME280;18191;51.288;12.390;2024-02-28T12:40:57;49066.53;;;-144.47;49.84
31585;BME280;18191;51.288;12.390;2024-02-28T12:45:47;49130.19;;;-144.47;53.38
31585;BME280;18191;51.288;12.390;2024-02-28T12:50:37;49076.47;;;-144.47;52.57
31585;BME280;18191;51.288;12.390;2024-02-28T12:55:28;49084.44;;;-144.47;47.76
31585;BME280;18191;51.288;12.390;2024-02-28T13:00:18;49108.31;;;-144.47;49.23
31585;BME280;18191;51.288;12.390;2024-02-28T13:05:10;49076.47;;;-144.47;46.28
31585;BME280;18191;51.288;12.390;2024-02-28T13:10:01;49076.47;;;-144.47;49.15
31585;BME280;18191;51.288;12.390;2024-02-28T13:14:51;49070.50;;;-144.47;48.37
31585;BME280;18191;51.288;12.390;2024-02-28T13:19:41;49082.44;;;-144.47;48.20
31585;BME280;18191;51.288;12.390;2024-02-28T13:24:32;49068.50;;;-144.47;45.21
31585;BME280;18191;51.288;12.390;2024-02-28T13:29:22;49094.38;;;-144.47;47.64
31585;BME280;18191;51.288;12.390;2024-02-28T13:34:13;49062.56;;;-144.47;47.27
31585;BME280;18191;51.288;12.390;2024-02-28T13:39:03;49068.50;;;-144.47;45.68
31585;BME280;18191;51.288;12.390;2024-02-28T13:43:54;49084.44;;;-144.47;45.42
31585;BME280;18191;51.288;12.390;2024-02-28T13:48:44;49072.50;;;-144.47;50.54
31585;BME280;18191;51.288;12.390;2024-02-28T13:53:34;49054.59;;;-144.47;49.62
31585;BME280;18191;51.288;12.390;2024-02-28T13:58:25;49052.59;;;-144.47;50.42
31585;BME280;18191;51.288;12.390;2024-02-28T14:03:15;49070.50;;;-144.47;50.80
31585;BME280;18191;51.288;12.390;2024-02-28T14:08:06;49072.50;;;-144.47;51.66
31585;BME280;18191;51.288;12.390;2024-02-28T14:13:01;49056.59;;;-144.47;50.51
31585;BME280;18191;51.288;12.390;2024-02-28T14:17:53;49076.47;;;-144.47;49.15
31585;BME280;18191;51.288;12.390;2024-02-28T14:22:44;49056.59;;;-144.47;49.99
31585;BME280;18191;51.288;12.390;2024-02-28T14:27:35;49058.56;;;-144.47;50.28
31585;BME280;18191;51.288;12.390;2024-02-28T14:32:25;49092.38;;;-144.47;50.42
31585;BME280;18191;51.288;12.390;2024-02-28T14:37:15;49062.56;;;-144.47;48.46
31585;BME280;18191;51.288;12.390;2024-02-28T14:42:09;49052.59;;;-144.47;49.90
31585;BME280;18191;51.288;12.390;2024-02-28T14:47:01;49054.59;;;-144.47;47.10
31585;BME280;18191;51.288;12.390;2024-02-28T14:51:52;49080.44;;;-144.47;49.83
31585;BME280;18191;51.288;12.390;2024-02-28T14:56:42;49088.41;;;-144.47;50.57
31585;BME280;18191;51.288;12.390;2024-02-28T15:01:33;49052.59;;;-144.47;48.17
31585;BME280;18191;51.288;12.390;2024-02-28T15:06:24;49100.34;;;-144.47;47.26
31585;BME280;18191;51.288;12.390;2024-02-28T15:11:23;49080.44;;;-144.47;50.56
31585;BME280;18191;51.288;12.390;2024-02-28T15:16:13;49064.53;;;-144.47;50.56
31585;BME280;18191;51.288;12.390;2024-02-28T15:21:04;49108.31;;;-144.47;48.14
31585;BME280;18191;51.288;12.390;2024-02-28T15:25:54;49060.56;;;-144.47;49.69
31585;BME280;18191;51.288;12.390;2024-02-28T15:30:44;49054.59;;;-144.47;50.16
31585;BME280;18191;51.288;12.390;2024-02-28T15:35:38;49084.44;;;-144.47;48.89
31585;BME280;18191;51.288;12.390;2024-02-28T15:40:28;49068.50;;;-144.47;50.05
31585;BME280;18191;51.288;12.390;2024-02-28T15:45:19;49068.50;;;-144.47;51.18
31585;BME280;18191;51.288;12.390;2024-02-28T15:50:09;49074.47;;;-144.47;52.31
31585;BME280;18191;51.288;12.390;2024-02-28T15:55:00;49084.44;;;-144.47;55.16
31585;BME280;18191;51.288;12.390;2024-02-28T15:59:50;49072.50;;;-144.47;53.66
31585;BME280;18191;51.288;12.390;2024-02-28T16:04:41;49074.47;;;-144.47;56.09
31585;BME280;18191;51.288;12.390;2024-02-28T16:09:31;49116.25;;;-144.47;56.02
31585;BME280;18191;51.288;12.390;2024-02-28T16:14:21;49080.44;;;-144.47;58.32
31585;BME280;18191;51.288;12.390;2024-02-28T16:19:12;49076.47;;;-144.47;61.11
31585;BME280;18191;51.288;12.390;2024-02-28T16:24:03;49112.28;;;-144.47;61.17
31585;BME280;18191;51.288;12.390;2024-02-28T16:28:53;49076.47;;;-144.47;64.00
31585;BME280;18191;51.288;12.390;2024-02-28T16:33:44;49080.44;;;-144.47;67.33
31585;BME280;18191;51.288;12.390;2024-02-28T16:38:34;49104.31;;;-144.47;68.42
31585;BME280;18191;51.288;12.390;2024-02-28T16:43:25;49092.38;;;-144.47;70.30
31585;BME280;18191;51.288;12.390;2024-02-28T16:48:16;49098.34;;;-144.47;70.71
31585;BME280;18191;51.288;12.390;2024-02-28T16:53:07;49096.38;;;-144.47;70.41
31585;BME280;18191;51.288;12.390;2024-02-28T16:57:57;49100.34;;;-144.47;72.32
31585;BME280;18191;51.288;12.390;2024-02-28T17:02:49;49104.31;;;-144.47;72.84
31585;BME280;18191;51.288;12.390;2024-02-28T17:07:39;49090.41;;;-144.47;73.70
31585;BME280;18191;51.288;12.390;2024-02-28T17:12:30;49112.28;;;-144.47;73.78
31585;BME280;18191;51.288;12.390;2024-02-28T17:17:20;49096.38;;;-144.47;74.04
31585;BME280;18191;51.288;12.390;2024-02-28T17:22:11;49096.38;;;-144.47;74.17
31585;BME280;18191;51.288;12.390;2024-02-28T17:27:01;49132.16;;;-144.47;74.57
31585;BME280;18191;51.288;12.390;2024-02-28T17:31:51;49112.28;;;-144.47;74.88
31585;BME280;18191;51.288;12.390;2024-02-28T17:36:43;49124.22;;;-144.47;74.62
31585;BME280;18191;51.288;12.390;2024-02-28T17:41:33;49102.34;;;-144.47;73.63
31585;BME280;18191;51.288;12.390;2024-02-28T17:46:23;49140.13;;;-144.47;73.01
31585;BME280;18191;51.288;12.390;2024-02-28T17:51:27;49074.47;;;-144.47;75.37
31585;BME280;18191;51.288;12.390;2024-02-28T17:56:17;49082.44;;;-144.47;74.30
31585;BME280;18191;51.288;12.390;2024-02-28T18:01:08;49136.16;;;-144.47;76.51
31585;BME280;18191;51.288;12.390;2024-02-28T18:05:59;49144.09;;;-144.47;77.60
31585;BME280;18191;51.288;12.390;2024-02-28T18:10:55;49108.31;;;-144.47;77.94
31585;BME280;18191;51.288;12.390;2024-02-28T18:15:45;49122.22;;;-144.47;78.10
31585;BME280;18191;51.288;12.390;2024-02-28T18:20:38;49118.25;;;-144.47;79.17
31585;BME280;18191;51.288;12.390;2024-02-28T18:25:29;49108.31;;;-144.47;79.78
31585;BME280;18191;51.288;12.390;2024-02-28T18:30:19;49126.22;;;-144.47;79.96
31585;BME280;18191;51.288;12.390;2024-02-28T18:35:13;49100.34;;;-144.47;79.45
31585;BME280;18191;51.288;12.390;2024-02-28T18:40:05;49140.13;;;-144.47;80.14
31585;BME280;18191;51.288;12.390;2024-02-28T18:45:02;49134.16;;;-144.47;81.11
31585;BME280;18191;51.288;12.390;2024-02-28T18:49:57;49088.41;;;-144.47;81.38
31585;BME280;18191;51.288;12.390;2024-02-28T18:54:48;49092.38;;;-144.47;81.66
31585;BME280;18191;51.288;12.390;2024-02-28T18:59:38;49100.34;;;-144.47;82.09
31585;BME280;18191;51.288;12.390;2024-02-28T19:04:29;49120.25;;;-144.47;82.47
31585;BME280;18191;51.288;12.390;2024-02-28T19:09:19;49136.16;;;-144.47;82.47
31585;BME280;18191;51.288;12.390;2024-02-28T19:14:09;49116.25;;;-144.47;82.62
31585;BME280;18191;51.288;12.390;2024-02-28T19:19:00;49108.31;;;-144.47;83.50
31585;BME280;18191;51.288;12.390;2024-02-28T19:23:50;49116.25;;;-144.47;83.95
31585;BME280;18191;51.288;12.390;2024-02-28T19:28:40;49128.19;;;-144.47;84.30
31585;BME280;18191;51.288;12.390;2024-02-28T19:33:32;49166.00;;;-144.47;83.90
31585;BME280;18191;51.288;12.390;2024-02-28T19:38:23;49142.13;;;-144.47;84.38
31585;BME280;18191;51.288;12.390;2024-02-28T19:43:13;49156.03;;;-144.47;85.22
31585;BME280;18191;51.288;12.390;2024-02-28T19:48:05;49126.22;;;-144.47;85.63
31585;BME280;18191;51.288;12.390;2024-02-28T19:52:55;49132.16;;;-144.47;85.84
31585;BME280;18191;51.288;12.390;2024-02-28T19:57:45;49104.31;;;-144.47;86.19
31585;BME280;18191;51.288;12.390;2024-02-28T20:02:36;49072.50;;;-144.47;86.00
31585;BME280;18191;51.288;12.390;2024-02-28T20:07:26;49140.13;;;-144.47;86.79
31585;BME280;18191;51.288;12.390;2024-02-28T20:12:16;49152.06;;;-144.47;86.37
31585;BME280;18191;51.288;12.390;2024-02-28T20:17:13;49144.09;;;-144.47;87.31
31585;BME280;18191;51.288;12.390;2024-02-28T20:22:05;49138.16;;;-144.47;87.48
31585;BME280;18191;51.288;12.390;2024-02-28T20:26:55;49167.97;;;-144.47;87.24
31585;BME280;18191;51.288;12.390;2024-02-28T20:31:46;49112.28;;;-144.47;88.12
31585;BME280;18191;51.288;12.390;2024-02-28T20:36:36;49130.19;;;-144.47;88.21
31585;BME280;18191;51.288;12.390;2024-02-28T20:41:27;49124.22;;;-144.47;88.66
31585;BME280;18191;51.288;12.390;2024-02-28T20:46:21;49148.09;;;-144.47;88.43
31585;BME280;18191;51.288;12.390;2024-02-28T20:51:13;49144.09;;;-144.47;88.35
31585;BME280;18191;51.288;12.390;2024-02-28T20:56:04;49116.25;;;-144.47;89.05
31585;BME280;18191;51.288;12.390;2024-02-28T21:00:54;49108.31;;;-144.47;88.93
31585;BME280;18191;51.288;12.390;2024-02-28T21:05:46;49096.38;;;-144.47;89.53
31585;BME280;18191;51.288;12.390;2024-02-28T21:10:36;49092.38;;;-144.47;89.31
31585;BME280;18191;51.288;12.390;2024-02-28T21:15:27;49136.16;;;-144.47;88.43
31585;BME280;18191;51.288;12.390;2024-02-28T21:20:17;49104.31;;;-144.47;89.43
31585;BME280;18191;51.288;12.390;2024-02-28T21:25:07;49090.41;;;-144.47;89.68
31585;BME280;18191;51.288;12.390;2024-02-28T21:29:58;49136.16;;;-144.47;89.98
31585;BME280;18191;51.288;12.390;2024-02-28T21:34:49;49128.19;;;-144.47;89.00
31585;BME280;18191;51.288;12.390;2024-02-28T21:39:39;49076.47;;;-144.47;90.08
31585;BME280;18191;51.288;12.390;2024-02-28T21:44:30;49112.28;;;-144.47;90.05
31585;BME280;18191;51.288;12.390;2024-02-28T21:49:20;49156.03;;;-144.47;90.09
31585;BME280;18191;51.288;12.390;2024-02-28T21:54:10;49132.16;;;-144.47;89.71
31585;BME280;18191;51.288;12.390;2024-02-28T21:59:01;49181.91;;;-144.47;90.42
31585;BME280;18191;51.288;12.390;2024-02-28T22:03:51;49128.19;;;-144.47;90.23
31585;BME280;18191;51.288;12.390;2024-02-28T22:08:42;49116.25;;;-144.47;90.57
31585;BME280;18191;51.288;12.390;2024-02-28T22:13:33;49148.09;;;-144.47;91.01
31585;BME280;18191;51.288;12.390;2024-02-28T22:18:23;49142.13;;;-144.47;90.79
31585;BME280;18191;51.288;12.390;2024-02-28T22:23:14;49146.09;;;-144.47;91.09
31585;BME280;18191;51.288;12.390;2024-02-28T22:28:04;49102.34;;;-144.47;91.20
31585;BME280;18191;51.288;12.390;2024-02-28T22:32:54;49108.31;;;-144.47;91.73
31585;BME280;18191;51.288;12.390;2024-02-28T22:37:45;49132.16;;;-144.47;91.96
31585;BME280;18191;51.288;12.390;2024-02-28T22:42:35;49144.09;;;-144.47;92.38
31585;BME280;18191;51.288;12.390;2024-02-28T22:47:26;49152.06;;;-144.47;92.16
31585;BME280;18191;51.288;12.390;2024-02-28T22:52:16;49104.31;;;-144.47;93.04
31585;BME280;18191;51.288;12.390;2024-02-28T22:57:10;49128.19;;;-144.47;93.00
31585;BME280;18191;51.288;12.390;2024-02-28T23:02:00;49140.13;;;-144.47;93.29
31585;BME280;18191;51.288;12.390;2024-02-28T23:06:50;49124.22;;;-144.47;94.20
31585;BME280;18191;51.288;12.390;2024-02-28T23:11:41;49136.16;;;-144.47;94.82
31585;BME280;18191;51.288;12.390;2024-02-28T23:16:31;49152.06;;;-144.47;94.87
31585;BME280;18191;51.288;12.390;2024-02-28T23:21:22;49148.09;;;-144.47;94.87
31585;BME280;18191;51.288;12.390;2024-02-28T23:26:12;49116.25;;;-144.47;95.31
31585;BME280;18191;51.288;12.390;2024-02-28T23:31:03;49162.00;;;-144.47;94.83
31585;BME280;18191;51.288;12.390;2024-02-28T23:35:53;49120.25;;;-144.47;95.83
31585;BME280;18191;51.288;12.390;2024-02-28T23:40:44;49132.16;;;-144.47;95.96
31585;BME280;18191;51.288;12.390;2024-02-28T23:45:34;49156.03;;;-144.47;95.74
31585;BME280;18191;51.288;12.390;2024-02-28T23:50:24;49136.16;;;-144.47;96.78
31585;BME280;18191;51.288;12.390;2024-02-28T23:55:15;49106.31;;;-144.47;96.86
